TimeEST,TemperatureF,Dew PointF,Humidity,Sea Level PressureIn,VisibilityMPH,Wind Direction,Wind SpeedMPH,Gust SpeedMPH,PrecipitationIn,Events,Conditions,WindDirDegrees,DateUTC
12:15 AM,50.0,49.1,97,30.43,7.0,NNE,4.6,-,N/A,,Overcast,20,2013-11-06 05:15:00
12:35 AM,50.0,49.1,97,30.42,7.0,NNE,5.8,-,N/A,,Overcast,30,2013-11-06 05:35:00
12:55 AM,50.0,49.1,97,30.42,7.0,NNE,5.8,-,N/A,,Overcast,20,2013-11-06 05:55:00
1:35 AM,50.0,49.1,97,30.41,10.0,NNE,6.9,-,N/A,,Overcast,20,2013-11-06 06:35:00
1:55 AM,50.0,49.1,97,30.41,7.0,NNE,6.9,-,N/A,,Overcast,30,2013-11-06 06:55:00
2:15 AM,50.0,49.1,97,30.40,7.0,NNE,5.8,-,N/A,,Overcast,20,2013-11-06 07:15:00
2:35 AM,50.0,49.1,97,30.40,10.0,North,4.6,-,N/A,,Overcast,10,2013-11-06 07:35:00
2:55 AM,50.0,48.9,96,30.39,7.0,North,5.8,-,N/A,,Overcast,10,2013-11-06 07:55:00
3:15 AM,49.6,48.6,96,30.38,7.0,NNE,5.8,-,N/A,,Overcast,30,2013-11-06 08:15:00
3:35 AM,49.6,48.6,96,30.38,7.0,NNE,6.9,-,N/A,,Overcast,20,2013-11-06 08:35:00
3:55 AM,50.0,48.4,94,30.37,10.0,NNE,5.8,-,N/A,,Overcast,30,2013-11-06 08:55:00
4:15 AM,50.0,48.6,95,30.37,10.0,NNE,6.9,-,N/A,,Overcast,20,2013-11-06 09:15:00
4:35 AM,50.2,48.4,94,30.37,10.0,NNE,5.8,-,N/A,,Overcast,30,2013-11-06 09:35:00
4:55 AM,51.1,48.7,92,30.36,10.0,NE,6.9,-,N/A,,Overcast,40,2013-11-06 09:55:00
5:15 AM,51.1,48.7,92,30.36,7.0,NNE,8.1,-,N/A,,Overcast,30,2013-11-06 10:15:00
5:35 AM,51.1,48.7,92,30.36,7.0,NE,6.9,-,N/A,,Overcast,40,2013-11-06 10:35:00
5:55 AM,51.1,48.9,92,30.36,10.0,NNE,6.9,-,N/A,,Overcast,30,2013-11-06 10:55:00
6:15 AM,51.1,48.7,92,30.37,10.0,NNE,6.9,-,N/A,,Overcast,20,2013-11-06 11:15:00
6:35 AM,50.9,48.6,92,30.36,10.0,NNE,6.9,-,N/A,,Overcast,30,2013-11-06 11:35:00
6:55 AM,51.3,48.6,90,30.36,10.0,NNE,8.1,-,N/A,,Overcast,30,2013-11-06 11:55:00
7:15 AM,51.1,48.4,90,30.37,10.0,NE,6.9,-,N/A,,Overcast,40,2013-11-06 12:15:00
7:35 AM,51.3,48.2,89,30.37,10.0,NE,5.8,-,N/A,,Overcast,40,2013-11-06 12:35:00
7:55 AM,51.3,48.2,89,30.37,10.0,NNE,6.9,-,N/A,,Overcast,20,2013-11-06 12:55:00
8:15 AM,51.3,47.8,88,30.37,10.0,NNE,8.1,-,N/A,,Overcast,20,2013-11-06 13:15:00
8:35 AM,53.1,48.6,85,30.37,10.0,NNE,8.1,-,N/A,,Overcast,30,2013-11-06 13:35:00
8:55 AM,52.7,48.2,85,30.37,10.0,NE,6.9,-,N/A,,Mostly Cloudy,40,2013-11-06 13:55:00
9:15 AM,53.6,48.2,82,30.37,10.0,North,4.6,-,N/A,,Overcast,10,2013-11-06 14:15:00
9:35 AM,55.0,48.6,79,30.37,10.0,NNE,4.6,-,N/A,,Overcast,30,2013-11-06 14:35:00
9:55 AM,56.5,48.4,74,30.37,10.0,East,5.8,-,N/A,,Overcast,80,2013-11-06 14:55:00
10:15 AM,57.4,48.6,72,30.37,10.0,North,3.5,-,N/A,,Mostly Cloudy,350,2013-11-06 15:15:00
10:35 AM,58.6,48.0,68,30.36,10.0,NE,3.5,-,N/A,,Mostly Cloudy,40,2013-11-06 15:35:00
10:55 AM,59.5,48.9,68,30.36,10.0,NNE,5.8,-,N/A,,Overcast,30,2013-11-06 15:55:00
11:15 AM,61.0,48.9,64,30.35,10.0,Calm,Calm,-,N/A,,Mostly Cloudy,0,2013-11-06 16:15:00
11:35 AM,61.7,49.6,65,30.34,10.0,North,5.8,-,N/A,,Mostly Cloudy,10,2013-11-06 16:35:00
11:55 AM,63.7,49.6,60,30.33,10.0,NNW,3.5,-,N/A,,Overcast,330,2013-11-06 16:55:00
12:15 PM,63.3,49.3,60,30.32,10.0,Calm,Calm,-,N/A,,Overcast,0,2013-11-06 17:15:00
12:35 PM,65.3,49.8,57,30.31,10.0,NNE,4.6,-,N/A,,Overcast,20,2013-11-06 17:35:00
12:55 PM,64.8,50.0,59,30.29,10.0,NE,4.6,-,N/A,,Overcast,40,2013-11-06 17:55:00
1:15 PM,65.5,50.2,58,30.28,10.0,North,3.5,-,N/A,,Mostly Cloudy,350,2013-11-06 18:15:00
1:35 PM,65.3,50.4,58,30.27,10.0,WNW,3.5,-,N/A,,Overcast,300,2013-11-06 18:35:00
1:55 PM,66.4,51.4,59,30.25,10.0,NNW,8.1,-,N/A,,Scattered Clouds,330,2013-11-06 18:55:00
2:15 PM,66.2,50.9,58,30.25,10.0,NNW,4.6,-,N/A,,Clear,340,2013-11-06 19:15:00
2:35 PM,67.1,51.4,57,30.24,10.0,Calm,Calm,-,N/A,,Clear,0,2013-11-06 19:35:00
2:55 PM,67.3,51.4,57,30.24,10.0,Calm,Calm,-,N/A,,Clear,0,2013-11-06 19:55:00
3:15 PM,68.5,51.8,55,30.23,10.0,Calm,Calm,-,N/A,,Clear,0,2013-11-06 20:15:00
3:35 PM,67.6,51.4,56,30.23,10.0,Calm,Calm,-,N/A,,Clear,0,2013-11-06 20:35:00
3:55 PM,67.5,51.4,56,30.22,10.0,Calm,Calm,-,N/A,,Clear,0,2013-11-06 20:55:00
4:15 PM,67.8,51.6,56,30.21,10.0,Calm,Calm,-,N/A,,Clear,0,2013-11-06 21:15:00
4:35 PM,67.5,51.4,56,30.20,10.0,Calm,Calm,-,N/A,,Clear,0,2013-11-06 21:35:00
4:55 PM,67.3,51.6,57,30.20,10.0,Calm,Calm,-,N/A,,Clear,0,2013-11-06 21:55:00
5:15 PM,65.3,52.3,63,30.21,10.0,Calm,Calm,-,N/A,,Clear,0,2013-11-06 22:15:00
5:35 PM,63.5,51.8,66,30.21,10.0,Calm,Calm,-,N/A,,Clear,0,2013-11-06 22:35:00
5:55 PM,63.5,51.8,66,30.21,10.0,Calm,Calm,-,N/A,,Scattered Clouds,0,2013-11-06 22:55:00
6:15 PM,62.1,51.8,69,30.20,10.0,Calm,Calm,-,N/A,,Scattered Clouds,0,2013-11-06 23:15:00
6:35 PM,61.3,51.8,71,30.20,10.0,North,3.5,-,N/A,,Clear,360,2013-11-06 23:35:00
6:55 PM,60.8,51.6,72,30.20,10.0,NW,3.5,-,N/A,,Clear,320,2013-11-06 23:55:00
7:15 PM,58.1,51.1,77,30.20,10.0,Calm,Calm,-,N/A,,Clear,0,2013-11-07 00:15:00
7:35 PM,58.3,51.3,77,30.20,10.0,Calm,Calm,-,N/A,,Clear,0,2013-11-07 00:35:00
7:55 PM,55.8,51.3,85,30.19,10.0,Calm,Calm,-,N/A,,Clear,0,2013-11-07 00:55:00
8:15 PM,54.7,51.6,89,30.19,10.0,Calm,Calm,-,N/A,,Clear,0,2013-11-07 01:15:00
8:35 PM,55.6,52.0,88,30.19,10.0,Calm,Calm,-,N/A,,Clear,0,2013-11-07 01:35:00
8:55 PM,54.3,52.2,92,30.19,10.0,Calm,Calm,-,N/A,,Clear,0,2013-11-07 01:55:00
9:15 PM,54.1,51.4,91,30.17,10.0,ENE,4.6,-,N/A,,Clear,70,2013-11-07 02:15:00
9:35 PM,53.6,51.4,92,30.17,10.0,ENE,3.5,-,N/A,,Clear,70,2013-11-07 02:35:00
9:55 PM,52.9,51.4,95,30.16,10.0,Calm,Calm,-,N/A,,Clear,0,2013-11-07 02:55:00
10:15 PM,51.6,50.0,94,30.15,7.0,Calm,Calm,-,N/A,,Clear,0,2013-11-07 03:15:00
10:35 PM,52.3,51.6,97,30.15,10.0,Calm,Calm,-,N/A,,Clear,0,2013-11-07 03:35:00
10:55 PM,48.6,47.8,97,30.15,5.0,Calm,Calm,-,N/A,,Clear,0,2013-11-07 03:55:00
11:15 PM,48.2,47.5,97,30.15,5.0,WNW,3.5,-,N/A,,Clear,290,2013-11-07 04:15:00
11:35 PM,49.6,49.1,98,30.15,7.0,West,3.5,-,N/A,,Clear,280,2013-11-07 04:35:00
11:55 PM,49.6,49.1,98,30.14,7.0,Calm,Calm,-,N/A,,Clear,0,2013-11-07 04:55:00